サイパン島 の空港の天気 - METARとTAF

サイパン国際空港 ( PGSN / SPN ) - 北マリアナ諸島 サイパン島
飛行場実況気象(Metar)
観測時間04/27 16:54 ChST (04/27 06:54 UTC)
風向・風速東南東 5m/s
視程10km以上
天気現象
少しの雲 雲底高度 730m
全天の4割程度の雲 雲底高度 1830m
気温28.9℃
湿度74%
気圧1012.5hPa
METARPGSN 270654Z 12009KT 10SM FEW024 SCT060 29/24 A2984 RMK AO2 SLP125 T02890239 $
過去の天気等 Google飛行場航空写真 Wunderground天気予報

過去48時間のMETAR

飛行場予報(TAF)
発表時間: 4/27 15:33 ChST (4/27 05:33 UTC)
予報対象時間: 27日16時 ChST ~ 28日16時 ChST
風向・風速東南東 6m/s
視程10km以上
天気現象周辺でしゅう雨
全天の4割程度の雲 雲底高度 610m
全天の8割程度の雲 雲底高度 3,050m
TAF PGSN 270533Z 2706/2806 12011KT P6SM VCSH SCT020 BKN100